Time;durP1;ratioP1;P1;durP2;ratioP2;P2;SDS_P1;SDS_P2;PMS_P1;PMS_P2;Temp;Humidity;BMP_temperature;BMP_pressure;BME280_temperature;BME280_humidity;BME280_pressure;Samples;Min_cycle;Max_cycle;Signal;HPM_P1;HPM_P2
2022/08/07 00:02:18;;;;;;;5.03;2.22;;;;;;;16.62;94.63;100502.28;5117290;27;20457;-87
2022/08/07 00:04:46;;;;;;;8.52;2.45;;;;;;;16.54;94.33;100501.13;5114360;28;20041;-88
2022/08/07 00:07:13;;;;;;;6.22;2.35;;;;;;;16.50;94.14;100509.47;5114566;28;20051;-87
2022/08/07 00:09:40;;;;;;;5.47;2.20;;;;;;;16.49;94.53;100507.75;5114132;28;20389;-86
2022/08/07 00:12:10;;;;;;;6.07;2.30;;;;;;;16.46;94.05;100513.41;5114775;27;20050;-87
2022/08/07 00:14:37;;;;;;;5.15;2.30;;;;;;;16.43;94.51;100516.34;5113590;28;20496;-86
2022/08/07 00:17:05;;;;;;;4.80;2.40;;;;;;;16.41;94.66;100512.88;5113964;28;20051;-88
2022/08/07 00:19:33;;;;;;;4.57;2.40;;;;;;;16.39;93.94;100522.16;5114218;28;20047;-86
2022/08/07 00:22:00;;;;;;;5.40;2.33;;;;;;;16.39;93.93;100523.00;5114799;27;20047;-88
2022/08/07 00:24:28;;;;;;;5.20;2.40;;;;;;;16.32;93.94;100516.25;5114098;28;20389;-88
2022/08/07 00:26:56;;;;;;;6.65;2.40;;;;;;;16.26;94.41;100519.41;5113758;28;20047;-87
2022/08/07 00:29:27;;;;;;;4.40;2.20;;;;;;;16.20;94.65;100517.97;5113196;28;20039;-87
2022/08/07 00:31:55;;;;;;;4.07;2.17;;;;;;;16.09;94.28;100515.97;5114407;27;20046;-86
2022/08/07 00:34:23;;;;;;;4.88;2.15;;;;;;;16.21;94.27;100515.16;5118673;27;20051;-87
2022/08/07 00:36:50;;;;;;;4.53;2.30;;;;;;;16.19;94.19;100522.56;5113667;28;20051;-88
2022/08/07 00:39:18;;;;;;;3.92;2.20;;;;;;;16.19;94.04;100519.84;5113564;28;20054;-85
2022/08/07 00:41:50;;;;;;;6.47;2.50;;;;;;;16.12;94.02;100514.91;5111063;28;20060;-87
2022/08/07 00:44:17;;;;;;;5.85;2.25;;;;;;;16.25;93.92;100520.38;5109542;27;20087;-87
2022/08/07 00:46:46;;;;;;;6.32;2.22;;;;;;;16.22;93.75;100527.78;5115251;28;20404;-84
2022/08/07 00:49:14;;;;;;;5.68;2.20;;;;;;;16.17;94.22;100526.34;5113249;28;20088;-88
2022/08/07 00:51:42;;;;;;;8.45;2.35;;;;;;;16.08;94.41;100526.03;5113259;28;20043;-87
2022/08/07 00:54:10;;;;;;;7.28;2.40;;;;;;;16.12;93.83;100534.88;5114594;27;20043;-87
2022/08/07 00:56:38;;;;;;;6.85;2.20;;;;;;;15.96;94.39;100525.97;5113160;28;20044;-86
2022/08/07 00:59:05;;;;;;;6.32;2.35;;;;;;;15.89;94.41;100525.50;5113651;28;20045;-87
2022/08/07 01:01:33;;;;;;;4.90;2.20;;;;;;;15.92;93.98;100526.19;5113422;28;20066;-87
2022/08/07 01:04:05;;;;;;;4.20;2.17;;;;;;;15.91;93.73;100513.56;5113175;28;20046;-86
2022/08/07 01:06:32;;;;;;;5.40;2.10;;;;;;;15.83;94.75;100520.47;5110735;27;20055;-82
2022/08/07 01:09:01;;;;;;;5.28;2.38;;;;;;;15.80;94.37;100521.56;5111769;28;20489;-87
2022/08/07 01:11:29;;;;;;;3.63;2.20;;;;;;;15.83;93.93;100520.47;5112027;28;20048;-84
2022/08/07 01:13:57;;;;;;;8.73;2.33;;;;;;;15.79;94.37;100520.66;5112982;27;20040;-87
2022/08/07 01:16:24;;;;;;;4.30;2.17;;;;;;;15.74;94.71;100517.38;5117872;27;20044;-87
2022/08/07 01:18:52;;;;;;;6.03;2.33;;;;;;;15.81;94.29;100517.84;5113023;28;20055;-87
2022/08/07 01:21:23;;;;;;;7.47;2.63;;;;;;;15.75;94.05;100523.72;5112684;28;20047;-86
2022/08/07 01:23:51;;;;;;;7.82;2.42;;;;;;;15.80;93.79;100524.28;5114423;27;20167;-88
2022/08/07 01:26:21;;;;;;;5.50;2.30;;;;;;;15.70;94.20;100525.84;5112878;27;20039;-87
2022/08/07 01:28:50;;;;;;;7.50;2.47;;;;;;;15.70;94.11;100531.28;5113119;28;20046;-84
2022/08/07 01:31:19;;;;;;;4.93;2.30;;;;;;;15.69;94.26;100518.66;5112738;28;20051;-87
2022/08/07 01:33:47;;;;;;;5.40;2.58;;;;;;;15.60;94.46;100526.47;5112343;27;20057;-84
2022/08/07 01:36:14;;;;;;;6.35;2.50;;;;;;;15.67;93.84;100526.06;5112912;27;20051;-87
2022/08/07 01:38:44;;;;;;;5.55;2.42;;;;;;;15.48;94.92;100525.44;5112656;28;20052;-88
2022/08/07 01:41:12;;;;;;;5.53;2.53;;;;;;;15.54;93.96;100518.72;5112644;28;20040;-88
2022/08/07 01:43:39;;;;;;;6.43;2.60;;;;;;;15.44;94.57;100523.03;5112687;28;20040;-88
2022/08/07 01:46:07;;;;;;;9.23;2.40;;;;;;;15.46;94.34;100523.81;5113012;27;20050;-88
2022/08/07 01:48:36;;;;;;;7.78;2.60;;;;;;;15.40;95.05;100521.50;5109121;28;20043;-87
2022/08/07 01:51:06;;;;;;;5.47;2.15;;;;;;;15.46;94.48;100527.38;5112123;28;20059;-87
2022/08/07 01:53:35;;;;;;;7.13;2.30;;;;;;;15.27;94.30;100524.13;5113798;27;20047;-82
2022/08/07 01:56:09;;;;;;;5.18;2.47;;;;;;;15.34;94.24;100518.22;5112039;28;20036;-85
2022/08/07 01:58:42;;;;;;;5.97;2.40;;;;;;;15.27;94.87;100522.28;5105834;28;20044;-83
2022/08/07 02:01:14;;;;;;;4.60;2.40;;;;;;;15.19;94.69;100527.34;5112735;28;20044;-87
2022/08/07 02:03:45;;;;;;;7.70;2.47;;;;;;;15.23;94.34;100526.19;5114276;27;20044;-87
2022/08/07 02:06:15;;;;;;;5.13;2.40;;;;;;;15.16;94.63;100523.00;5113779;27;20047;-87
2022/08/07 02:08:44;;;;;;;7.57;2.33;;;;;;;15.14;94.52;100524.94;5111976;28;20071;-87
2022/08/07 02:11:16;;;;;;;5.85;2.20;;;;;;;15.02;94.44;100529.31;5111938;28;20450;-86
2022/08/07 02:13:44;;;;;;;5.55;2.33;;;;;;;15.02;94.53;100534.78;5108320;28;20048;-87
2022/08/07 02:16:14;;;;;;;5.25;2.10;;;;;;;14.91;95.27;100531.88;5112672;27;20040;-88
2022/08/07 02:18:42;;;;;;;5.25;2.40;;;;;;;14.82;94.76;100540.59;5111828;28;20035;-86
2022/08/07 02:21:10;;;;;;;4.40;2.28;;;;;;;14.76;94.62;100540.00;5112087;28;20039;-82
2022/08/07 02:23:39;;;;;;;5.07;2.30;;;;;;;14.76;94.84;100542.72;5111170;28;20058;-84
2022/08/07 02:26:08;;;;;;;4.28;2.30;;;;;;;14.63;95.08;100555.31;5117102;27;20096;-88
2022/08/07 02:28:38;;;;;;;6.57;2.30;;;;;;;14.61;95.28;100551.81;5112070;28;20043;-87
2022/08/07 02:31:06;;;;;;;6.43;2.50;;;;;;;14.68;94.89;100546.84;5111940;28;20040;-87
2022/08/07 02:33:35;;;;;;;4.55;2.20;;;;;;;14.63;94.59;100558.03;5112054;28;20039;-87
2022/08/07 02:36:03;;;;;;;6.07;2.40;;;;;;;14.68;93.91;100560.44;5113694;27;20044;-86
2022/08/07 02:38:35;;;;;;;6.43;2.22;;;;;;;14.48;94.69;100560.75;5110943;28;20094;-87
2022/08/07 02:41:03;;;;;;;6.47;2.40;;;;;;;14.52;94.49;100557.84;5112688;28;20048;-87
2022/08/07 02:43:33;;;;;;;5.45;2.40;;;;;;;14.39;94.92;100555.84;5111874;28;20509;-88
2022/08/07 02:46:02;;;;;;;4.18;2.20;;;;;;;14.54;94.34;100555.91;5110142;27;20488;-85
2022/08/07 02:48:30;;;;;;;4.82;2.40;;;;;;;14.43;95.15;100551.97;5104861;28;20046;-84
2022/08/07 02:50:59;;;;;;;4.68;2.15;;;;;;;14.53;94.79;100559.59;5110767;28;20055;-86
2022/08/07 02:53:33;;;;;;;5.10;2.20;;;;;;;14.45;95.03;100560.03;5111308;28;20047;-87
2022/08/07 02:56:03;;;;;;;5.88;2.45;;;;;;;14.48;94.59;100549.88;5111988;27;20436;-87
2022/08/07 02:58:31;;;;;;;7.30;2.40;;;;;;;14.42;95.24;100549.38;5112378;28;20411;-86
2022/08/07 03:01:01;;;;;;;5.72;2.28;;;;;;;14.42;95.48;100560.22;5118719;28;20051;-88
2022/08/07 03:03:31;;;;;;;6.10;2.30;;;;;;;14.38;95.32;100558.69;5111635;28;20039;-85
2022/08/07 03:05:59;;;;;;;3.83;2.28;;;;;;;14.32;95.20;100557.19;5111990;27;20036;-88
2022/08/07 03:08:27;;;;;;;6.38;3.00;;;;;;;14.30;95.56;100564.56;5111715;27;20484;-87
2022/08/07 03:10:55;;;;;;;6.93;2.35;;;;;;;14.33;95.88;100564.38;5109866;28;20047;-87
2022/08/07 03:13:22;;;;;;;5.88;2.50;;;;;;;14.32;95.33;100566.25;5111940;28;20048;-88
2022/08/07 03:15:50;;;;;;;8.07;3.47;;;;;;;14.29;95.24;100566.41;5111336;28;20040;-87
2022/08/07 03:18:20;;;;;;;15.25;7.63;;;;;;;14.27;95.82;100567.47;5116216;28;20054;-85
2022/08/07 03:20:47;;;;;;;5.57;2.70;;;;;;;14.18;96.14;100564.34;5111394;27;20040;-85
2022/08/07 03:23:15;;;;;;;7.35;2.45;;;;;;;14.22;95.51;100565.03;5111844;27;20129;-88
2022/08/07 03:25:43;;;;;;;3.90;2.20;;;;;;;14.10;96.02;100571.19;5109163;28;20497;-86
2022/08/07 03:28:13;;;;;;;5.28;2.60;;;;;;;14.15;95.96;100569.06;5113278;28;20092;-87
2022/08/07 03:30:40;;;;;;;4.10;2.38;;;;;;;14.10;95.73;100569.38;5115247;27;20409;-86
2022/08/07 03:33:09;;;;;;;6.13;2.45;;;;;;;13.97;95.78;100571.03;5115513;28;20048;-85
2022/08/07 03:35:39;;;;;;;8.88;2.63;;;;;;;13.94;95.49;100571.22;5112685;28;20052;-87
2022/08/07 03:38:08;;;;;;;5.38;2.60;;;;;;;13.89;95.86;100558.81;5114764;27;20092;-87
2022/08/07 03:40:36;;;;;;;6.45;2.55;;;;;;;14.03;95.06;100565.25;5115056;28;20140;-84
2022/08/07 03:43:04;;;;;;;6.75;2.72;;;;;;;14.04;95.17;100567.00;5113992;28;20051;-87
2022/08/07 03:45:32;;;;;;;7.32;2.47;;;;;;;14.17;95.23;100575.28;5114878;28;20047;-86
2022/08/07 03:48:00;;;;;;;5.97;2.45;;;;;;;14.15;95.76;100575.41;5115797;27;20047;-85
2022/08/07 03:50:28;;;;;;;7.38;2.80;;;;;;;14.13;96.56;100580.06;5114184;28;20079;-88
2022/08/07 03:52:59;;;;;;;7.28;2.53;;;;;;;14.10;96.32;100577.53;5114979;28;20523;-88
2022/08/07 03:55:28;;;;;;;6.30;2.40;;;;;;;14.09;96.18;100575.78;5113148;27;20058;-82
2022/08/07 03:57:56;;;;;;;5.85;2.40;;;;;;;14.12;95.91;100575.59;5122939;27;20040;-86
2022/08/07 04:00:24;;;;;;;5.38;2.53;;;;;;;14.16;95.66;100577.16;5114745;28;20051;-85
2022/08/07 04:02:51;;;;;;;5.45;2.40;;;;;;;14.13;95.70;100577.34;5115316;28;20097;-85
2022/08/07 04:05:20;;;;;;;11.50;4.78;;;;;;;14.07;95.22;100577.66;5114992;27;20043;-81
2022/08/07 04:07:48;;;;;;;12.55;5.80;;;;;;;14.04;95.52;100583.28;5117005;27;20075;-86
2022/08/07 04:10:17;;;;;;;9.77;3.92;;;;;;;14.11;95.97;100573.84;5115128;28;20404;-86
2022/08/07 04:12:44;;;;;;;4.78;2.42;;;;;;;14.08;95.54;100579.44;5117831;28;20090;-86
2022/08/07 04:15:12;;;;;;;7.97;2.40;;;;;;;14.11;95.34;100576.56;5114885;28;20430;-84
2022/08/07 04:17:43;;;;;;;5.00;2.30;;;;;;;14.15;95.20;100583.56;5114081;28;20050;-86
2022/08/07 04:20:11;;;;;;;4.28;2.22;;;;;;;14.22;94.93;100585.91;5113583;28;20087;-86
2022/08/07 04:22:40;;;;;;;7.20;2.50;;;;;;;14.28;94.64;100586.41;5114349;27;20073;-87
2022/08/07 04:25:09;;;;;;;5.32;2.40;;;;;;;14.29;94.96;100595.41;5114199;28;20050;-82
2022/08/07 04:27:38;;;;;;;3.92;2.20;;;;;;;14.46;94.20;100583.53;5114066;27;20047;-87
2022/08/07 04:30:06;;;;;;;3.35;2.10;;;;;;;14.45;94.66;100576.34;5114661;28;20054;-87
2022/08/07 04:32:34;;;;;;;4.47;2.33;;;;;;;14.49;95.16;100595.09;5107194;28;20058;-88
2022/08/07 04:35:02;;;;;;;8.10;2.10;;;;;;;14.39;96.23;100591.16;5114180;28;20055;-86
2022/08/07 04:37:31;;;;;;;5.20;2.20;;;;;;;14.64;94.53;100598.69;5114436;27;20046;-85
2022/08/07 04:39:59;;;;;;;5.38;2.78;;;;;;;14.64;94.69;100589.69;5111175;28;20046;-86
2022/08/07 04:42:30;;;;;;;6.50;2.30;;;;;;;14.73;94.11;100591.00;5114398;28;20431;-85
2022/08/07 04:45:01;;;;;;;4.97;2.10;;;;;;;14.89;93.69;100599.94;5118581;27;20047;-87
2022/08/07 04:47:38;;;;;;;4.78;2.35;;;;;;;14.91;93.82;100600.72;5115702;28;20545;-87
2022/08/07 04:50:09;;;;;;;5.75;2.20;;;;;;;14.86;93.77;100601.97;5106647;28;20066;-88
2022/08/07 04:52:41;;;;;;;4.78;2.10;;;;;;;14.93;93.38;100600.63;5113935;28;20092;-87
2022/08/07 04:55:15;;;;;;;11.68;4.25;;;;;;;14.88;93.33;100613.63;5114646;28;20071;-87
2022/08/07 04:57:49;;;;;;;7.60;3.67;;;;;;;14.92;93.73;100617.94;5114870;28;20396;-87
2022/08/07 05:00:21;;;;;;;3.70;2.05;;;;;;;15.04;93.11;100619.88;5116651;27;20609;-87
2022/08/07 05:02:54;;;;;;;7.07;2.10;;;;;;;15.20;92.76;100613.44;5116858;28;20066;-87
2022/08/07 05:05:25;;;;;;;4.40;2.10;;;;;;;15.09;93.17;100614.13;5112163;28;20062;-86
2022/08/07 05:07:57;;;;;;;5.63;2.05;;;;;;;15.13;93.35;100620.25;5111651;28;20039;-86
2022/08/07 05:10:30;;;;;;;6.68;2.20;;;;;;;15.27;92.29;100616.66;5110862;27;20074;-86
2022/08/07 05:13:00;;;;;;;4.65;1.88;;;;;;;15.31;92.37;100629.09;5113120;28;20047;-87
2022/08/07 05:15:31;;;;;;;4.63;2.10;;;;;;;15.52;91.11;100621.41;5107524;28;20052;-87
2022/08/07 05:18:00;;;;;;;9.55;3.13;;;;;;;15.67;90.02;100618.63;5111801;28;20062;-86
2022/08/07 05:20:32;;;;;;;7.70;2.47;;;;;;;15.66;90.53;100623.22;5114753;27;20093;-87
2022/08/07 05:23:04;;;;;;;3.67;1.95;;;;;;;15.90;88.98;100633.50;5113668;27;20043;-89
2022/08/07 05:25:32;;;;;;;8.88;2.25;;;;;;;15.82;89.88;100628.53;5111971;28;20488;-88
2022/08/07 05:28:00;;;;;;;5.72;2.17;;;;;;;15.92;90.20;100629.72;5108880;27;20485;-87
2022/08/07 05:30:30;;;;;;;9.75;2.10;;;;;;;16.02;88.29;100635.41;5111808;27;20048;-86
2022/08/07 05:32:58;;;;;;;4.15;2.00;;;;;;;16.21;87.14;100640.50;5108033;28;20051;-87
2022/08/07 05:35:26;;;;;;;5.25;2.10;;;;;;;16.21;87.24;100645.97;5109687;27;20043;-84
2022/08/07 05:37:54;;;;;;;6.00;1.90;;;;;;;16.41;86.24;100646.44;5110873;27;20040;-82
2022/08/07 05:40:22;;;;;;;8.57;1.90;;;;;;;16.24;85.84;100642.13;5114867;27;20051;-82
2022/08/07 05:42:50;;;;;;;5.93;1.80;;;;;;;16.16;86.32;100639.06;5108742;27;20039;-83
2022/08/07 05:45:18;;;;;;;3.35;1.77;;;;;;;16.21;86.85;100631.44;5109458;28;20068;-84
2022/08/07 05:47:46;;;;;;;6.07;1.88;;;;;;;16.21;86.69;100637.78;5105222;28;20092;-82
2022/08/07 05:50:14;;;;;;;6.82;1.67;;;;;;;16.47;85.13;100645.16;5108690;27;20119;-88
2022/08/07 05:52:42;;;;;;;3.75;1.70;;;;;;;16.32;85.93;100638.91;5111248;27;20117;-86
2022/08/07 05:55:10;;;;;;;6.28;1.90;;;;;;;16.49;85.02;100640.47;5110401;28;20112;-83
2022/08/07 05:57:38;;;;;;;4.63;1.98;;;;;;;16.49;85.02;100640.47;5110946;28;20505;-84
2022/08/07 06:00:07;;;;;;;5.47;2.00;;;;;;;16.53;84.82;100638.44;5110167;28;20043;-86
2022/08/07 06:02:36;;;;;;;3.50;1.65;;;;;;;16.63;84.63;100624.03;5110152;28;20051;-84
2022/08/07 06:05:07;;;;;;;7.65;1.80;;;;;;;16.64;84.32;100631.22;5111459;28;20055;-86
2022/08/07 06:07:35;;;;;;;9.23;1.77;;;;;;;16.69;83.57;100625.47;5116080;28;20077;-83
2022/08/07 06:10:03;;;;;;;4.57;1.60;;;;;;;16.74;82.40;100634.19;5111740;27;20044;-89
2022/08/07 06:12:31;;;;;;;4.82;1.70;;;;;;;16.73;83.00;100635.19;5115003;28;20043;-85
2022/08/07 06:14:59;;;;;;;4.45;2.13;;;;;;;16.90;82.52;100633.09;5110670;28;20043;-82
2022/08/07 06:17:26;;;;;;;5.40;1.80;;;;;;;16.95;81.73;100642.72;5110335;28;20051;-88
2022/08/07 06:19:54;;;;;;;11.05;1.73;;;;;;;17.16;81.72;100644.06;5108211;28;20078;-81
2022/08/07 06:22:24;;;;;;;5.65;1.77;;;;;;;17.11;81.80;100638.06;5113249;28;20058;-84
2022/08/07 06:24:51;;;;;;;4.95;1.90;;;;;;;17.20;81.01;100637.41;5110540;27;20055;-87
2022/08/07 06:27:22;;;;;;;5.68;1.77;;;;;;;17.29;79.71;100636.72;5110038;27;20040;-83
2022/08/07 06:29:50;;;;;;;6.40;1.80;;;;;;;17.23;79.43;100638.06;5103632;28;20413;-86
2022/08/07 06:32:17;;;;;;;7.03;1.90;;;;;;;17.44;79.25;100642.09;5110297;27;20040;-84
2022/08/07 06:34:45;;;;;;;6.45;1.73;;;;;;;17.50;78.73;100641.63;5108432;28;20054;-85
2022/08/07 06:37:13;;;;;;;6.15;1.70;;;;;;;17.67;78.38;100640.41;5108082;28;20039;-87
2022/08/07 06:39:42;;;;;;;3.28;1.50;;;;;;;17.56;78.10;100635.72;5104403;28;20115;-79
2022/08/07 06:42:11;;;;;;;5.18;1.67;;;;;;;17.62;76.51;100643.47;5113940;28;20040;-84
2022/08/07 06:44:40;;;;;;;5.90;1.60;;;;;;;17.67;76.14;100641.25;5103179;28;20511;-84
2022/08/07 06:47:07;;;;;;;3.50;1.40;;;;;;;17.89;75.46;100639.69;5108033;28;20080;-80
2022/08/07 06:49:34;;;;;;;3.78;1.38;;;;;;;17.99;74.23;100641.72;5108235;28;20047;-80
2022/08/07 06:52:03;;;;;;;5.10;1.77;;;;;;;18.01;73.97;100648.84;5112257;27;20040;-81
2022/08/07 06:54:32;;;;;;;2.78;1.40;;;;;;;18.09;73.82;100640.94;5108529;27;20043;-83
2022/08/07 06:57:01;;;;;;;4.38;1.63;;;;;;;18.24;72.71;100638.03;5108782;28;20130;-81
2022/08/07 06:59:33;;;;;;;6.18;1.70;;;;;;;18.37;71.76;100648.91;5107453;28;20059;-79
2022/08/07 07:02:01;;;;;;;3.72;1.40;;;;;;;18.34;71.65;100639.06;5111201;27;20035;-81
2022/08/07 07:04:29;;;;;;;5.18;1.40;;;;;;;18.29;72.01;100645.91;5109939;28;20744;-78
2022/08/07 07:06:57;;;;;;;6.05;1.70;;;;;;;18.48;71.17;100650.81;5112266;28;20050;-79
2022/08/07 07:09:27;;;;;;;5.50;2.20;;;;;;;18.50;70.77;100638.75;5110677;28;20059;-77
2022/08/07 07:12:18;;;;;;;4.43;1.60;;;;;;;18.58;68.42;100642.78;5111503;28;20063;-80
2022/08/07 07:14:50;;;;;;;4.75;1.60;;;;;;;18.64;69.33;100645.91;5114581;27;20044;-81
2022/08/07 07:17:22;;;;;;;4.57;1.60;;;;;;;18.78;68.68;100636.63;5112565;27;20048;-80
2022/08/07 07:19:54;;;;;;;5.43;1.60;;;;;;;18.82;68.29;100635.38;5106268;28;20067;-78
2022/08/07 07:22:22;;;;;;;6.47;1.40;;;;;;;18.98;66.40;100642.44;5106459;28;20043;-80
2022/08/07 07:24:50;;;;;;;4.18;1.50;;;;;;;19.01;67.25;100633.09;5112271;27;20051;-81
2022/08/07 07:27:22;;;;;;;5.13;1.65;;;;;;;19.02;67.23;100632.97;5111326;28;20043;-80
2022/08/07 07:29:53;;;;;;;7.78;1.60;;;;;;;19.04;65.63;100630.09;5109997;28;20051;-80
2022/08/07 07:32:21;;;;;;;5.10;1.30;;;;;;;19.10;64.72;100633.22;5117478;27;20562;-80
2022/08/07 07:34:54;;;;;;;3.65;1.40;;;;;;;19.22;65.70;100636.84;5106320;28;20036;-80
2022/08/07 07:37:23;;;;;;;5.07;1.40;;;;;;;19.36;65.64;100632.97;5110266;28;20044;-79
2022/08/07 07:39:52;;;;;;;4.30;1.45;;;;;;;19.45;65.65;100630.50;5111833;28;20046;-78
2022/08/07 07:42:22;;;;;;;5.15;1.67;;;;;;;19.58;64.51;100624.88;5108110;27;20336;-81
2022/08/07 07:44:51;;;;;;;3.30;1.30;;;;;;;19.66;64.42;100628.72;5111103;28;20069;-81
2022/08/07 07:47:19;;;;;;;2.70;1.33;;;;;;;19.69;64.43;100631.22;5110501;28;20051;-81
2022/08/07 07:49:48;;;;;;;5.22;1.50;;;;;;;19.74;63.73;100629.97;5110480;27;20130;-78
2022/08/07 07:52:17;;;;;;;4.75;1.70;;;;;;;19.84;63.38;100633.69;5109849;27;20432;-79
2022/08/07 07:54:45;;;;;;;4.70;1.45;;;;;;;19.84;63.38;100633.69;5111399;28;20511;-76
2022/08/07 07:57:14;;;;;;;2.72;1.20;;;;;;;19.89;62.28;100631.44;5109608;28;20104;-78
2022/08/07 07:59:43;;;;;;;5.20;1.38;;;;;;;19.86;61.83;100625.34;5110349;28;20032;-77
2022/08/07 08:02:11;;;;;;;3.58;1.20;;;;;;;19.88;61.97;100629.72;5110570;27;20504;-77
2022/08/07 08:04:40;;;;;;;2.08;1.25;;;;;;;19.89;61.03;100625.97;5108712;27;20082;-80
2022/08/07 08:07:08;;;;;;;3.30;1.30;;;;;;;19.90;60.85;100633.22;5106094;28;20553;-77
2022/08/07 08:09:37;;;;;;;4.43;1.38;;;;;;;20.01;61.52;100628.69;5110821;27;20048;-78
2022/08/07 08:12:05;;;;;;;5.15;1.40;;;;;;;20.08;61.29;100632.66;5109479;28;20039;-78
2022/08/07 08:14:34;;;;;;;3.08;1.20;;;;;;;20.11;60.44;100629.66;5108170;27;20047;-77
2022/08/07 08:17:04;;;;;;;4.03;1.50;;;;;;;20.11;59.53;100625.06;5111219;27;20055;-81
2022/08/07 08:19:32;;;;;;;5.40;1.30;;;;;;;20.13;59.04;100619.44;5109684;28;20051;-77
2022/08/07 08:27:35;;;;;;;5.70;1.48;;;;;;;20.37;59.39;100621.09;5109597;28;20051;-77
2022/08/07 08:30:06;;;;;;;2.65;1.30;;;;;;;20.44;59.27;100616.81;5108943;28;20047;-78
2022/08/07 08:32:39;;;;;;;5.03;1.42;;;;;;;20.46;59.18;100620.31;5110277;27;20045;-76
2022/08/07 08:35:09;;;;;;;5.78;1.50;;;;;;;20.54;59.14;100616.91;5108401;28;20542;-78
2022/08/07 08:37:37;;;;;;;4.72;1.30;;;;;;;20.55;59.70;100615.91;5110490;28;20047;-77
2022/08/07 08:40:09;;;;;;;7.82;1.50;;;;;;;20.56;57.77;100623.13;5108504;28;20105;-77
2022/08/07 08:42:40;;;;;;;7.65;1.40;;;;;;;20.59;57.98;100622.88;5107351;27;20061;-83
2022/08/07 08:45:13;;;;;;;4.68;1.67;;;;;;;20.62;58.57;100624.47;5102267;27;20058;-76
2022/08/07 08:47:54;;;;;;;5.70;1.40;;;;;;;20.64;57.01;100614.25;5110661;28;20076;-80
2022/08/07 08:50:23;;;;;;;8.13;1.63;;;;;;;20.70;57.70;100614.56;5109813;27;20047;-77
2022/08/07 08:52:56;;;;;;;6.45;1.60;;;;;;;20.72;58.44;100621.78;5110289;28;20051;-77
2022/08/07 08:55:30;;;;;;;2.17;1.20;;;;;;;20.83;57.84;100619.03;5114454;27;20047;-78
2022/08/07 08:58:03;;;;;;;8.63;1.40;;;;;;;20.99;57.66;100613.03;5109992;28;20485;-76
2022/08/07 09:00:37;;;;;;;4.25;1.40;;;;;;;21.02;57.36;100607.28;5109507;27;20047;-77
2022/08/07 09:03:16;;;;;;;3.22;1.20;;;;;;;21.08;56.07;100606.75;5109978;28;20058;-76
2022/08/07 09:05:49;;;;;;;4.25;1.25;;;;;;;21.16;56.16;100611.53;5109112;27;20044;-76
2022/08/07 09:08:27;;;;;;;4.63;1.20;;;;;;;21.23;56.48;100603.63;5108650;28;20663;-75
2022/08/07 09:11:02;;;;;;;4.40;1.25;;;;;;;21.21;55.35;100608.38;5107050;28;20052;-76
2022/08/07 09:13:33;;;;;;;3.70;1.25;;;;;;;21.33;55.83;100599.03;5108228;28;20089;-76
2022/08/07 09:16:05;;;;;;;4.28;1.25;;;;;;;21.40;55.73;100605.72;5108617;27;20043;-81
2022/08/07 09:18:46;;;;;;;5.05;1.40;;;;;;;21.33;53.78;100603.69;5112219;28;20048;-80
2022/08/07 09:21:24;;;;;;;4.93;1.42;;;;;;;21.38;54.90;100602.22;5108336;27;20667;-80
2022/08/07 09:23:56;;;;;;;5.50;1.42;;;;;;;21.46;55.06;100608.94;5107356;28;20055;-82
2022/08/07 09:26:33;;;;;;;4.22;1.35;;;;;;;21.50;53.56;100599.41;5109521;27;20695;-77
2022/08/07 09:29:06;;;;;;;4.53;1.20;;;;;;;21.57;54.37;100606.06;5108302;27;20036;-75
2022/08/07 09:31:42;;;;;;;6.80;1.55;;;;;;;21.64;55.13;100603.69;5109389;27;20839;-75
2022/08/07 09:34:20;;;;;;;2.60;1.15;;;;;;;21.70;55.06;100597.63;5110776;27;20047;-76
2022/08/07 09:36:55;;;;;;;3.50;1.30;;;;;;;21.78;55.14;100597.78;5107725;28;20056;-76
2022/08/07 09:39:36;;;;;;;4.30;1.30;;;;;;;21.84;54.59;100594.44;5115253;27;20573;-75
2022/08/07 09:42:09;;;;;;;4.97;1.20;;;;;;;21.81;53.70;100594.75;5106174;28;20040;-75
2022/08/07 09:44:49;;;;;;;2.97;1.23;;;;;;;21.84;53.49;100596.34;5108601;28;20058;-81
2022/08/07 09:47:27;;;;;;;3.90;1.20;;;;;;;21.88;54.11;100594.16;5110399;27;20458;-78
2022/08/07 09:50:02;;;;;;;4.03;1.20;;;;;;;21.88;52.74;100595.06;5107776;28;20759;-81
2022/08/07 09:52:35;;;;;;;4.50;1.30;;;;;;;21.96;52.93;100586.06;5108932;28;20518;-82
2022/08/07 09:55:09;;;;;;;2.75;1.10;;;;;;;21.91;52.27;100580.13;5109409;28;20047;-78
2022/08/07 09:57:56;;;;;;;2.92;1.10;;;;;;;21.99;52.76;100581.16;5105076;27;20843;-80
2022/08/07 10:00:30;;;;;;;2.05;1.20;;;;;;;22.05;52.56;100584.34;5109533;28;20389;-78
2022/08/07 10:03:11;;;;;;;3.58;1.30;;;;;;;22.20;53.65;100582.91;5109050;28;20047;-78
2022/08/07 10:05:55;;;;;;;4.47;1.20;;;;;;;22.27;51.07;100583.19;5106997;28;20083;-81
2022/08/07 10:08:44;;;;;;;2.40;1.30;;;;;;;22.25;51.74;100587.97;5114249;27;20039;-79
2022/08/07 10:11:18;;;;;;;2.80;1.20;;;;;;;22.32;51.85;100582.78;5105483;28;20416;-77
2022/08/07 10:13:50;;;;;;;2.47;1.25;;;;;;;22.47;52.17;100581.34;5103163;28;20039;-77
2022/08/07 10:16:37;;;;;;;6.05;1.30;;;;;;;22.39;51.50;100578.44;5109812;27;20039;-78
2022/08/07 10:19:32;;;;;;;3.28;1.33;;;;;;;22.39;50.73;100582.03;5114724;27;20050;-79
2022/08/07 10:22:13;;;;;;;23.50;1.75;;;;;;;22.46;50.53;100578.75;5108188;28;20155;-86
2022/08/07 10:24:55;;;;;;;4.43;1.30;;;;;;;22.53;50.05;100569.75;5108605;28;20108;-79
2022/08/07 10:27:36;;;;;;;4.03;1.25;;;;;;;22.64;51.02;100573.34;5107783;28;20894;-78
2022/08/07 10:30:08;;;;;;;4.97;1.20;;;;;;;22.69;50.58;100573.78;5108780;28;20047;-79
2022/08/07 10:33:07;;;;;;;2.65;1.10;;;;;;;22.76;50.36;100558.41;5108020;28;20162;-80
2022/08/07 10:35:49;;;;;;;2.47;1.08;;;;;;;22.86;51.28;100570.25;5109610;28;20054;-83
2022/08/07 10:38:42;;;;;;;8.40;1.15;;;;;;;22.94;50.69;100572.28;5112598;27;20492;-77
2022/08/07 10:41:15;;;;;;;2.35;1.10;;;;;;;23.07;51.30;100563.69;5104292;28;20463;-77
2022/08/07 10:43:48;;;;;;;3.80;1.25;;;;;;;23.08;51.40;100568.19;5113244;27;20044;-83
2022/08/07 10:46:19;;;;;;;5.32;1.88;;;;;;;23.03;51.58;100564.97;5114795;27;20043;-84
2022/08/07 10:48:55;;;;;;;2.40;1.20;;;;;;;22.99;49.92;100560.78;5110836;27;20047;-87
2022/08/07 10:51:29;;;;;;;4.20;1.30;;;;;;;22.98;49.89;100554.44;5110460;28;20063;-80
2022/08/07 10:54:04;;;;;;;3.00;1.20;;;;;;;23.12;49.57;100552.19;5119806;27;20096;-87
2022/08/07 10:56:41;;;;;;;2.28;1.05;;;;;;;23.22;49.72;100546.66;5112506;28;20046;-83
2022/08/07 10:59:16;;;;;;;5.25;1.20;;;;;;;23.27;49.05;100556.25;5110237;27;20096;-79
2022/08/07 11:01:50;;;;;;;4.03;1.20;;;;;;;23.37;48.46;100556.16;5110503;27;20047;-81
2022/08/07 11:04:26;;;;;;;3.22;1.10;;;;;;;23.35;48.35;100552.69;5112006;28;20754;-84
2022/08/07 11:07:02;;;;;;;4.45;1.10;;;;;;;23.29;47.08;100543.19;5112272;28;20363;-87
2022/08/07 11:09:36;;;;;;;2.85;1.20;;;;;;;23.37;48.53;100539.63;5118635;27;20047;-84
2022/08/07 11:12:11;;;;;;;4.22;1.23;;;;;;;23.39;48.91;100545.84;5112800;28;20035;-85
2022/08/07 11:14:41;;;;;;;4.55;1.40;;;;;;;23.55;49.03;100539.69;5106974;28;20055;-78
2022/08/07 11:17:14;;;;;;;2.13;1.30;;;;;;;23.64;48.92;100539.75;5114827;28;20040;-78
2022/08/07 11:19:48;;;;;;;5.35;1.10;;;;;;;23.69;48.95;100535.53;5116155;28;20039;-76
2022/08/07 11:22:22;;;;;;;4.95;1.40;;;;;;;23.67;48.22;100537.56;5116429;28;20044;-78
2022/08/07 11:25:03;;;;;;;2.95;1.25;;;;;;;23.71;47.59;100538.16;5115007;28;20558;-78
2022/08/07 11:27:40;;;;;;;6.20;2.05;;;;;;;23.72;47.47;100537.97;5114719;28;20047;-84
2022/08/07 11:30:12;;;;;;;11.48;1.50;;;;;;;23.82;47.44;100531.50;5117071;27;20103;-85
2022/08/07 11:32:44;;;;;;;4.85;1.48;;;;;;;23.65;47.49;100528.59;5108343;28;20055;-80
2022/08/07 11:35:15;;;;;;;4.60;1.10;;;;;;;23.65;47.50;100538.75;5115243;28;20051;-77
2022/08/07 11:37:55;;;;;;;3.85;1.10;;;;;;;23.63;45.58;100527.00;5108200;28;20085;-78
2022/08/07 11:40:33;;;;;;;4.70;1.95;;;;;;;23.61;45.04;100529.94;5112221;27;20043;-80
2022/08/07 11:43:05;;;;;;;3.83;1.20;;;;;;;23.72;45.08;100528.84;5105380;28;20039;-76
2022/08/07 11:45:46;;;;;;;3.75;1.52;;;;;;;23.76;44.42;100521.13;5115771;28;20040;-77
2022/08/07 11:48:27;;;;;;;5.15;2.38;;;;;;;23.77;45.36;100514.56;5107377;28;20047;-78